Portada
METAR-TAF:

METAR-TAF

Aeropuertos :

Branch County Memorial Airport

Coldwater, Míchigan, Estados Unidos

latitud: 41-56N, longitud: 085-03-09W, altitud: 292 m

Observación

El informe se hizo hace 15 minutos, a las 20:55 UTC
Viento 5 kt del oeste-suroeste
Temperatura 32°C
Humedad 59%
Presión 1024 hPa
Visibilidad: 16.1 km
Cielo despejado

METAR: KOEB 192055Z AUTO 25005KT 10SM CLR 32/23 A3024 RMK AO2 T03160225

Hora: 17:10 (21:10 UTC)


TAF: falta

Observaciones y pronósticos meteorológicos de más de 4000 aeropuertos (mensajes METAR y TAF).

Los puntos amarillos y rojos representan las estaciones disponibles.

Ponga el ratón en el punto deseado para ver el nombre de la estación.

Haga clic para ver las observaciones y los pronósticos meteorológicos.

Para cambiar el mapa : haga clic en los botones verdes con una cruz de color negro para hacer un zoom, en el botón verde con un guión para alejar o en las flechas verdes para mapas adyacentes.


METAR-TAF: